createdAt,value
2018-11-29T00:00:27.586Z,26.12
2018-11-29T00:02:55.828Z,25.95
2018-11-29T00:05:23.984Z,26.73
2018-11-29T00:07:52.302Z,26.97
2018-11-29T00:10:20.493Z,27.20
2018-11-29T00:12:48.756Z,26.70
2018-11-29T00:15:17.022Z,25.52
2018-11-29T00:17:45.282Z,28.10
2018-11-29T00:20:15.266Z,27.27
2018-11-29T00:22:44.288Z,28.02
2018-11-29T00:25:13.494Z,27.90
2018-11-29T00:27:41.891Z,26.57
2018-11-29T00:30:11.306Z,29.18
2018-11-29T00:32:39.496Z,27.00
2018-11-29T00:35:09.044Z,27.80
2018-11-29T00:37:37.312Z,28.07
2018-11-29T00:40:10.856Z,28.92
2018-11-29T00:42:39.043Z,28.40
2018-11-29T00:45:09.859Z,28.32
2018-11-29T00:47:38.033Z,29.00
2018-11-29T00:50:08.413Z,28.35
2018-11-29T00:52:37.297Z,28.57
2018-11-29T00:55:06.109Z,28.00
2018-11-29T00:57:34.385Z,28.10
2018-11-29T01:00:02.596Z,29.32
2018-11-29T01:02:30.817Z,27.77
2018-11-29T01:04:59.004Z,29.75
2018-11-29T01:07:27.209Z,28.77
2018-11-29T01:09:55.383Z,28.27
2018-11-29T01:12:23.669Z,30.27
2018-11-29T01:14:51.885Z,28.40
2018-11-29T01:17:20.083Z,27.10
2018-11-29T01:19:48.278Z,28.40
2018-11-29T01:22:16.477Z,28.57
2018-11-29T01:24:44.683Z,30.45
2018-11-29T01:27:12.961Z,26.62
2018-11-29T01:29:41.237Z,30.80
2018-11-29T01:32:09.466Z,29.20
2018-11-29T01:34:37.711Z,28.40
2018-11-29T01:37:06.065Z,28.90
2018-11-29T01:39:34.255Z,30.50
2018-11-29T01:42:02.575Z,30.10
2018-11-29T01:44:30.928Z,30.00
2018-11-29T01:46:59.230Z,28.75
2018-11-29T01:49:27.520Z,29.65
2018-11-29T01:51:55.796Z,29.70
2018-11-29T01:54:24.068Z,29.07
2018-11-29T01:56:52.448Z,28.25
2018-11-29T01:59:20.760Z,28.55
2018-11-29T02:01:49.032Z,28.70
2018-11-29T02:04:17.380Z,29.57
2018-11-29T02:06:45.700Z,30.27
2018-11-29T02:09:14.036Z,29.27
2018-11-29T02:11:49.030Z,29.50
2018-11-29T02:14:17.379Z,27.80
2018-11-29T02:16:45.664Z,29.12
2018-11-29T02:19:13.937Z,27.67
2018-11-29T02:24:16.798Z,29.40
2018-11-29T02:26:45.018Z,28.20
2018-11-29T02:29:13.352Z,27.58
2018-11-29T02:31:41.679Z,27.40
2018-11-29T02:34:10.019Z,27.80
2018-11-29T02:36:38.425Z,25.97
2018-11-29T02:39:08.305Z,27.20
2018-11-29T02:41:36.579Z,27.73
2018-11-29T02:44:04.905Z,25.27
2018-11-29T02:46:33.271Z,26.52
2018-11-29T02:49:01.584Z,28.52
2018-11-29T02:51:30.036Z,26.42
2018-11-29T02:53:58.420Z,26.10
2018-11-29T02:56:26.603Z,26.87
2018-11-29T02:58:54.844Z,25.65
2018-11-29T03:01:23.179Z,24.92
2018-11-29T03:03:52.153Z,25.23
2018-11-29T03:06:20.667Z,25.43
2018-11-29T03:08:49.021Z,25.52
2018-11-29T03:11:17.273Z,24.82
2018-11-29T03:13:45.544Z,26.35
2018-11-29T03:16:14.011Z,24.70
2018-11-29T03:18:42.304Z,25.20
2018-11-29T03:21:10.667Z,24.18
2018-11-29T03:23:38.977Z,26.07
2018-11-29T03:26:07.280Z,23.50
2018-11-29T03:28:35.679Z,24.47
2018-11-29T03:31:04.004Z,25.30
2018-11-29T03:33:32.274Z,24.10
2018-11-29T03:36:00.628Z,24.67
2018-11-29T03:38:28.923Z,25.35
2018-11-29T03:40:57.212Z,24.67
2018-11-29T03:43:25.488Z,23.20
2018-11-29T03:45:53.789Z,25.30
2018-11-29T03:48:22.101Z,24.32
2018-11-29T03:50:50.377Z,25.17
2018-11-29T03:53:18.656Z,23.05
2018-11-29T03:55:54.084Z,25.40
2018-11-29T03:58:22.475Z,24.70
2018-11-29T04:00:50.790Z,25.15
2018-11-29T04:03:19.031Z,24.12
2018-11-29T04:05:47.309Z,23.32
2018-11-29T04:08:15.600Z,23.87
2018-11-29T04:10:43.958Z,24.80
2018-11-29T04:13:12.268Z,22.32
2018-11-29T04:15:40.533Z,24.57
2018-11-29T04:18:08.869Z,22.65
2018-11-29T04:20:37.131Z,23.52
2018-11-29T04:23:06.034Z,22.90
2018-11-29T04:25:34.278Z,22.67
2018-11-29T04:28:02.630Z,23.77
2018-11-29T04:30:30.995Z,22.30
2018-11-29T04:32:59.233Z,22.65
2018-11-29T04:35:27.553Z,22.42
2018-11-29T04:37:55.919Z,22.10
2018-11-29T04:40:24.225Z,22.27
2018-11-29T04:42:52.616Z,22.30
2018-11-29T04:45:20.858Z,22.10
2018-11-29T04:47:49.234Z,21.73
2018-11-29T04:50:17.635Z,23.05
2018-11-29T04:52:45.998Z,23.45
2018-11-29T04:55:14.376Z,23.10
2018-11-29T04:57:42.696Z,22.07
2018-11-29T05:00:14.761Z,22.52
2018-11-29T05:02:43.074Z,22.10
2018-11-29T05:05:12.228Z,21.45
2018-11-29T05:07:40.624Z,22.10
2018-11-29T05:10:10.612Z,22.50
2018-11-29T05:12:38.927Z,20.27
2018-11-29T05:15:10.135Z,21.27
2018-11-29T05:17:38.719Z,21.73
2018-11-29T05:20:07.215Z,21.73
2018-11-29T05:22:35.567Z,20.37
2018-11-29T05:25:04.404Z,22.37
2018-11-29T05:27:32.819Z,22.02
2018-11-29T05:30:01.236Z,22.27
2018-11-29T05:32:29.668Z,20.95
2018-11-29T05:34:58.054Z,22.17
2018-11-29T05:37:26.372Z,20.08
2018-11-29T05:39:54.748Z,20.70
2018-11-29T05:42:23.054Z,19.37
2018-11-29T05:44:51.360Z,19.90
2018-11-29T05:47:19.630Z,21.42
2018-11-29T05:49:47.864Z,21.48
2018-11-29T05:52:16.096Z,19.77
2018-11-29T05:54:44.400Z,20.57
2018-11-29T05:57:12.688Z,19.25
2018-11-29T05:59:41.050Z,20.57
2018-11-29T06:02:09.738Z,19.15
2018-11-29T06:04:38.086Z,20.60
2018-11-29T06:07:06.555Z,20.72
2018-11-29T06:09:34.920Z,20.45
2018-11-29T06:12:03.258Z,20.12
2018-11-29T06:14:31.755Z,20.52
2018-11-29T06:17:00.058Z,19.25
2018-11-29T06:19:28.490Z,19.73
2018-11-29T06:21:56.820Z,20.00
2018-11-29T06:24:25.147Z,18.50
2018-11-29T06:26:53.378Z,18.73
2018-11-29T06:29:21.650Z,21.30
2018-11-29T06:31:49.942Z,19.23
2018-11-29T06:34:18.215Z,20.23
2018-11-29T06:36:46.533Z,20.30
2018-11-29T06:39:14.795Z,20.45
2018-11-29T06:41:43.134Z,19.87
2018-11-29T06:44:11.411Z,19.25
2018-11-29T06:46:39.740Z,18.73
2018-11-29T06:49:08.093Z,19.30
2018-11-29T06:51:36.399Z,17.85
2018-11-29T06:54:05.003Z,19.23
2018-11-29T06:56:33.355Z,19.02
2018-11-29T06:59:01.660Z,17.82
2018-11-29T07:01:29.974Z,17.55
2018-11-29T07:03:58.257Z,19.45
2018-11-29T07:06:26.879Z,19.05
2018-11-29T07:08:55.301Z,19.20
2018-11-29T07:11:23.583Z,19.27
2018-11-29T07:13:52.024Z,17.67
2018-11-29T07:16:20.326Z,17.05
2018-11-29T07:18:48.703Z,19.17
2018-11-29T07:21:28.355Z,18.20
2018-11-29T07:23:56.704Z,18.87
2018-11-29T07:26:26.192Z,18.80
2018-11-29T07:28:54.483Z,17.70
2018-11-29T07:31:22.853Z,17.27
2018-11-29T07:33:51.447Z,17.85
2018-11-29T07:36:19.835Z,17.25
2018-11-29T07:38:48.125Z,16.77
2018-11-29T07:41:16.307Z,17.85
2018-11-29T07:43:44.667Z,17.67
2018-11-29T07:46:12.833Z,17.17
2018-11-29T07:48:41.135Z,17.17
2018-11-29T07:51:09.319Z,18.37
2018-11-29T07:53:37.490Z,17.85
2018-11-29T07:56:05.849Z,16.05
2018-11-29T07:58:34.021Z,16.67
2018-11-29T08:01:02.215Z,16.55
2018-11-29T08:03:30.385Z,16.17
2018-11-29T08:05:58.601Z,15.50
2018-11-29T08:08:27.091Z,17.10
2018-11-29T08:10:56.369Z,16.60
2018-11-29T08:13:24.623Z,17.65
2018-11-29T08:15:52.833Z,16.77
2018-11-29T08:18:21.035Z,17.17
2018-11-29T08:20:49.277Z,16.00
2018-11-29T08:23:17.640Z,16.55
2018-11-29T08:25:45.846Z,15.20
2018-11-29T08:28:14.023Z,15.90
2018-11-29T08:30:42.265Z,16.42
2018-11-29T08:33:10.543Z,15.78
2018-11-29T08:35:39.221Z,17.20
2018-11-29T08:38:07.421Z,15.00
2018-11-29T08:40:35.607Z,16.62
2018-11-29T08:43:03.783Z,16.57
2018-11-29T08:45:31.960Z,16.30
2018-11-29T08:48:00.216Z,16.40
2018-11-29T08:50:28.414Z,17.67
2018-11-29T08:52:56.712Z,16.07
2018-11-29T08:55:24.962Z,15.85
2018-11-29T08:57:53.188Z,16.42
2018-11-29T09:00:21.948Z,14.93
2018-11-29T09:02:50.401Z,16.65
2018-11-29T09:05:18.569Z,16.30
2018-11-29T09:07:47.685Z,16.23
2018-11-29T09:10:18.205Z,15.78
2018-11-29T09:12:46.442Z,15.58
2018-11-29T09:15:15.415Z,16.67
2018-11-29T09:17:43.594Z,14.95
2018-11-29T09:20:13.836Z,17.77
2018-11-29T09:22:42.113Z,16.75
2018-11-29T09:25:13.416Z,16.15
2018-11-29T09:27:41.629Z,15.83
2018-11-29T09:30:12.960Z,15.05
2018-11-29T09:32:41.879Z,14.93
2018-11-29T09:35:10.272Z,16.90
2018-11-29T09:37:38.478Z,16.40
2018-11-29T09:40:12.650Z,16.93
2018-11-29T09:42:40.896Z,15.57
2018-11-29T09:45:14.148Z,16.77
2018-11-29T09:47:43.948Z,15.77
2018-11-29T09:50:13.142Z,17.50
2018-11-29T09:52:41.428Z,16.90
2018-11-29T09:55:11.014Z,17.80
2018-11-29T09:57:39.230Z,16.73
2018-11-29T10:00:14.847Z,16.90
2018-11-29T10:02:44.760Z,18.13
2018-11-29T10:05:13.253Z,18.33
2018-11-29T10:07:41.481Z,16.97
2018-11-29T10:10:14.237Z,16.27
2018-11-29T10:12:42.433Z,16.50
2018-11-29T10:15:12.287Z,18.43
2018-11-29T10:17:40.509Z,15.37
2018-11-29T10:20:12.576Z,16.87
2018-11-29T10:22:41.636Z,17.30
2018-11-29T10:25:17.543Z,15.97
2018-11-29T10:27:47.587Z,17.87
2018-11-29T10:30:19.237Z,17.13
2018-11-29T10:32:47.685Z,17.93
2018-11-29T10:35:15.895Z,16.40
2018-11-29T10:37:44.117Z,18.27
2018-11-29T10:40:12.319Z,17.60
2018-11-29T10:42:40.465Z,17.40
2018-11-29T10:45:13.855Z,17.37
2018-11-29T10:47:43.003Z,18.43
2018-11-29T10:50:12.307Z,18.00
2018-11-29T10:52:40.564Z,18.57
2018-11-29T10:55:13.183Z,17.37
2018-11-29T10:57:41.519Z,17.40
2018-11-29T11:00:25.714Z,18.27
2018-11-29T11:03:00.497Z,17.70
2018-11-29T11:05:28.798Z,17.17
2018-11-29T11:07:56.992Z,16.60
2018-11-29T11:10:25.251Z,16.43
2018-11-29T11:12:53.439Z,17.10
2018-11-29T11:15:21.650Z,17.03
2018-11-29T11:17:50.009Z,17.57
2018-11-29T11:20:18.230Z,17.60
2018-11-29T11:22:47.007Z,18.23
2018-11-29T11:25:15.196Z,17.70
2018-11-29T11:27:43.437Z,17.40
2018-11-29T11:30:17.147Z,18.53
2018-11-29T11:32:46.615Z,17.23
2018-11-29T11:35:14.836Z,19.17
2018-11-29T11:37:42.997Z,17.50
2018-11-29T11:40:15.200Z,16.67
2018-11-29T11:42:44.021Z,18.53
2018-11-29T11:45:15.258Z,17.17
2018-11-29T11:47:43.496Z,16.20
2018-11-29T11:50:13.828Z,16.57
2018-11-29T11:52:42.074Z,17.77
2018-11-29T11:55:10.802Z,17.60
2018-11-29T11:57:39.306Z,16.50
2018-11-29T12:00:14.711Z,17.23
2018-11-29T12:02:43.542Z,16.33
2018-11-29T12:05:12.294Z,16.83
2018-11-29T12:07:40.464Z,16.13
2018-11-29T12:10:10.280Z,16.03
2018-11-29T12:12:38.486Z,16.73
2018-11-29T12:15:09.216Z,16.40
2018-11-29T12:17:38.256Z,16.83
2018-11-29T12:20:09.457Z,16.33
2018-11-29T12:22:37.606Z,16.33
2018-11-29T12:25:07.090Z,16.40
2018-11-29T12:27:35.296Z,16.30
2018-11-29T12:30:04.375Z,16.00
2018-11-29T12:32:32.607Z,15.37
2018-11-29T12:35:01.156Z,16.77
2018-11-29T12:37:29.426Z,14.63
2018-11-29T12:39:57.655Z,14.77
2018-11-29T12:42:25.859Z,14.73
2018-11-29T12:44:54.039Z,16.40
2018-11-29T12:47:22.235Z,14.57
2018-11-29T12:49:50.403Z,14.00
2018-11-29T12:52:18.595Z,14.73
2018-11-29T12:54:46.855Z,15.03
2018-11-29T12:57:15.090Z,14.90
2018-11-29T12:59:43.257Z,14.33
2018-11-29T13:02:11.463Z,15.40
2018-11-29T13:04:39.673Z,14.80
2018-11-29T13:07:07.865Z,13.90
2018-11-29T13:09:36.081Z,14.40
2018-11-29T13:12:04.315Z,14.77
2018-11-29T13:14:32.499Z,13.00
2018-11-29T13:17:00.678Z,13.90
2018-11-29T13:19:28.872Z,13.00
2018-11-29T13:21:57.117Z,14.17
2018-11-29T13:24:25.388Z,13.80
2018-11-29T13:26:53.569Z,13.33
2018-11-29T13:29:21.767Z,13.97
2018-11-29T13:31:49.976Z,13.40
2018-11-29T13:34:18.191Z,13.47
2018-11-29T13:36:46.505Z,13.83
2018-11-29T13:39:14.762Z,12.63
2018-11-29T13:41:43.117Z,12.43
2018-11-29T13:44:11.347Z,13.20
2018-11-29T13:46:39.557Z,13.30
2018-11-29T13:49:07.777Z,13.57
2018-11-29T13:51:35.997Z,13.13
2018-11-29T13:54:04.218Z,13.43
2018-11-29T13:56:32.535Z,12.80
2018-11-29T13:59:00.762Z,13.10
2018-11-29T14:01:28.987Z,12.83
2018-11-29T14:03:57.205Z,13.23
2018-11-29T14:06:25.405Z,12.13
2018-11-29T14:08:53.606Z,13.37
2018-11-29T14:11:21.795Z,12.90
2018-11-29T14:13:49.991Z,12.50
2018-11-29T14:16:18.224Z,12.30
2018-11-29T14:18:46.471Z,12.17
2018-11-29T14:21:14.683Z,11.63
2018-11-29T14:23:42.926Z,13.60
2018-11-29T14:26:11.179Z,12.77
2018-11-29T14:28:39.453Z,12.30
2018-11-29T14:31:08.003Z,12.07
2018-11-29T14:33:36.207Z,12.17
2018-11-29T14:36:04.539Z,12.03
2018-11-29T14:38:32.747Z,12.00
2018-11-29T14:41:01.016Z,11.20
2018-11-29T14:43:29.205Z,11.63
2018-11-29T14:45:57.409Z,11.93
2018-11-29T14:48:25.619Z,11.57
2018-11-29T14:50:53.777Z,12.53
2018-11-29T14:53:21.977Z,10.83
2018-11-29T14:55:50.177Z,13.23
2018-11-29T14:58:19.817Z,11.10
2018-11-29T15:00:46.691Z,11.10
2018-11-29T15:03:16.752Z,11.53
2018-11-29T15:05:45.303Z,11.77
2018-11-29T15:08:13.515Z,11.83
2018-11-29T15:10:41.758Z,11.47
2018-11-29T15:13:11.110Z,11.20
2018-11-29T15:15:40.057Z,12.57
2018-11-29T15:18:09.040Z,10.90
2018-11-29T15:20:38.971Z,12.17
2018-11-29T15:23:08.222Z,11.90
2018-11-29T15:25:36.524Z,12.03
2018-11-29T15:28:04.710Z,12.07
2018-11-29T15:30:33.048Z,11.43
2018-11-29T15:33:01.285Z,11.20
2018-11-29T15:35:29.516Z,11.70
2018-11-29T15:37:57.710Z,12.00
2018-11-29T15:40:25.941Z,12.20
2018-11-29T15:42:54.138Z,12.00
2018-11-29T15:45:23.807Z,12.57
2018-11-29T15:47:52.026Z,12.30
2018-11-29T15:50:20.215Z,11.80
2018-11-29T15:52:48.534Z,12.60
2018-11-29T15:55:19.510Z,11.30
2018-11-29T15:57:49.813Z,12.53
2018-11-29T16:00:20.868Z,12.03
2018-11-29T16:02:50.136Z,12.37
2018-11-29T16:05:18.347Z,11.87
2018-11-29T16:07:46.586Z,12.90
2018-11-29T16:10:15.961Z,11.20
2018-11-29T16:12:44.243Z,12.70
2018-11-29T16:15:14.354Z,12.07
2018-11-29T16:17:42.896Z,12.50
2018-11-29T16:20:19.362Z,11.70
2018-11-29T16:22:47.602Z,11.67
2018-11-29T16:25:15.816Z,12.63
2018-11-29T16:27:44.149Z,12.00
2018-11-29T16:30:16.374Z,12.13
2018-11-29T16:32:44.638Z,12.23
2018-11-29T16:35:12.968Z,12.10
2018-11-29T16:37:41.300Z,12.93
2018-11-29T16:40:09.593Z,11.73
2018-11-29T16:42:37.840Z,12.20
2018-11-29T16:45:10.048Z,12.73
2018-11-29T16:47:38.330Z,12.43
2018-11-29T16:50:09.740Z,12.47
2018-11-29T16:52:37.965Z,13.17
2018-11-29T16:55:07.442Z,12.10
2018-11-29T16:57:35.796Z,12.70
2018-11-29T17:00:06.870Z,14.87
2018-11-29T17:02:35.170Z,16.50
2018-11-29T17:05:03.466Z,18.77
2018-11-29T17:07:31.706Z,14.77
2018-11-29T17:09:59.908Z,15.27
2018-11-29T17:12:28.118Z,13.10
2018-11-29T17:14:56.366Z,13.00
2018-11-29T17:17:24.550Z,12.77
2018-11-29T17:19:52.729Z,19.50
2018-11-29T17:22:21.020Z,13.70
2018-11-29T17:24:49.237Z,13.40
2018-11-29T17:27:17.558Z,13.50
2018-11-29T17:29:45.860Z,11.43
2018-11-29T17:32:14.191Z,12.20
2018-11-29T17:34:42.392Z,11.93
2018-11-29T17:37:10.653Z,11.83
2018-11-29T17:39:38.856Z,12.10
2018-11-29T17:42:07.200Z,12.07
2018-11-29T17:44:35.321Z,12.03
2018-11-29T17:47:03.541Z,11.40
2018-11-29T17:49:31.817Z,11.33
2018-11-29T17:52:00.035Z,12.15
2018-11-29T17:54:28.309Z,11.80
2018-11-29T17:56:56.562Z,12.07
2018-11-29T17:59:24.923Z,11.73
2018-11-29T18:01:53.202Z,13.85
2018-11-29T18:04:21.475Z,12.83
2018-11-29T18:06:49.731Z,12.93
2018-11-29T18:09:17.961Z,13.60
2018-11-29T18:11:46.221Z,10.70
2018-11-29T18:14:14.426Z,16.33
2018-11-29T18:16:42.641Z,12.40
2018-11-29T18:19:13.141Z,11.77
2018-11-29T18:21:39.186Z,13.33
2018-11-29T18:24:07.449Z,11.28
2018-11-29T18:26:35.679Z,11.00
2018-11-29T18:29:03.889Z,10.90
2018-11-29T18:31:32.151Z,11.63
2018-11-29T18:34:00.434Z,9.65
2018-11-29T18:36:28.847Z,10.50
2018-11-29T18:38:57.123Z,10.90
2018-11-29T18:41:25.427Z,10.43
2018-11-29T18:43:53.703Z,11.25
2018-11-29T18:46:21.911Z,11.48
2018-11-29T18:48:50.142Z,10.05
2018-11-29T18:51:18.493Z,10.03
2018-11-29T18:53:46.827Z,9.65
2018-11-29T18:56:15.063Z,10.13
2018-11-29T18:58:43.287Z,10.70
2018-11-29T19:01:11.534Z,11.08
2018-11-29T19:03:39.789Z,9.78
2018-11-29T19:06:08.114Z,10.35
2018-11-29T19:08:36.367Z,11.70
2018-11-29T19:11:04.602Z,12.93
2018-11-29T19:13:32.889Z,10.08
2018-11-29T19:16:01.112Z,9.15
2018-11-29T19:18:29.351Z,9.10
2018-11-29T19:20:57.626Z,9.80
2018-11-29T19:23:25.953Z,8.63
2018-11-29T19:25:54.275Z,9.20
2018-11-29T19:28:22.659Z,9.60
2018-11-29T19:30:50.911Z,9.73
2018-11-29T19:33:20.811Z,9.65
2018-11-29T19:35:50.251Z,9.40
2018-11-29T19:38:18.495Z,8.90
2018-11-29T19:40:46.777Z,9.50
2018-11-29T19:43:15.193Z,10.40
2018-11-29T19:45:43.460Z,9.13
2018-11-29T19:48:12.041Z,8.53
2018-11-29T19:50:40.283Z,8.90
2018-11-29T19:53:13.968Z,8.05
2018-11-29T19:55:42.281Z,8.03
2018-11-29T19:58:10.603Z,8.43
2018-11-29T20:00:39.221Z,8.30
2018-11-29T20:03:07.668Z,8.18
2018-11-29T20:05:35.925Z,8.55
2018-11-29T20:08:04.305Z,8.23
2018-11-29T20:10:33.595Z,7.90
2018-11-29T20:13:06.584Z,9.85
2018-11-29T20:15:36.492Z,8.30
2018-11-29T20:18:04.811Z,7.72
2018-11-29T20:20:33.027Z,7.53
2018-11-29T20:23:01.406Z,8.38
2018-11-29T20:25:29.864Z,9.18
2018-11-29T20:27:58.436Z,8.70
2018-11-29T20:30:26.727Z,7.58
2018-11-29T20:32:55.580Z,7.78
2018-11-29T20:35:23.794Z,9.00
2018-11-29T20:37:53.034Z,8.85
2018-11-29T20:40:25.541Z,8.30
2018-11-29T20:42:55.757Z,8.93
2018-11-29T20:45:27.516Z,8.78
2018-11-29T20:47:55.718Z,9.15
2018-11-29T20:50:25.404Z,7.90
2018-11-29T20:52:54.686Z,9.18
2018-11-29T20:55:25.508Z,9.70
2018-11-29T20:57:53.728Z,8.90
2018-11-29T21:00:21.954Z,8.73
2018-11-29T21:02:50.432Z,8.73
2018-11-29T21:05:19.980Z,10.03
2018-11-29T21:07:49.700Z,8.40
2018-11-29T21:10:21.341Z,9.25
2018-11-29T21:12:49.646Z,8.55
2018-11-29T21:15:18.673Z,8.50
2018-11-29T21:17:46.966Z,8.30
2018-11-29T21:20:16.526Z,9.05
2018-11-29T21:22:45.934Z,8.75
2018-11-29T21:25:19.251Z,9.50
2018-11-29T21:27:47.629Z,8.60
2018-11-29T21:30:16.437Z,9.10
2018-11-29T21:32:45.218Z,9.08
2018-11-29T21:35:14.594Z,9.68
2018-11-29T21:37:43.095Z,9.28
2018-11-29T21:40:16.056Z,8.45
2018-11-29T21:42:44.304Z,9.90
2018-11-29T21:45:12.534Z,9.85
2018-11-29T21:47:40.780Z,9.68
2018-11-29T21:50:09.227Z,9.68
2018-11-29T21:52:37.438Z,9.23
2018-11-29T21:55:06.694Z,8.15
2018-11-29T21:57:35.455Z,9.25
2018-11-29T22:00:07.193Z,8.85
2018-11-29T22:02:42.270Z,9.08
2018-11-29T22:05:11.012Z,8.35
2018-11-29T22:07:39.720Z,9.33
2018-11-29T22:10:08.596Z,8.90
2018-11-29T22:12:37.288Z,9.77
2018-11-29T22:15:08.472Z,8.78
2018-11-29T22:17:40.993Z,9.23
2018-11-29T22:20:09.781Z,8.70
2018-11-29T22:22:38.369Z,9.98
2018-11-29T22:25:07.867Z,9.00
2018-11-29T22:27:36.363Z,9.78
2018-11-29T22:30:06.268Z,9.08
2018-11-29T22:32:35.058Z,9.03
2018-11-29T22:35:03.950Z,9.70
2018-11-29T22:37:33.449Z,8.88
2018-11-29T22:40:01.704Z,11.30
2018-11-29T22:42:29.921Z,11.03
2018-11-29T22:44:58.110Z,9.88
2018-11-29T22:47:26.352Z,9.85
2018-11-29T22:49:54.563Z,9.23
2018-11-29T22:52:22.856Z,8.93
2018-11-29T22:54:51.080Z,10.90
2018-11-29T22:57:25.898Z,10.25
2018-11-29T22:59:54.214Z,11.10
2018-11-29T23:02:22.388Z,10.45
2018-11-29T23:04:50.638Z,9.30
2018-11-29T23:07:18.862Z,10.40
2018-11-29T23:09:48.260Z,10.00
2018-11-29T23:12:20.715Z,9.28
2018-11-29T23:14:48.954Z,9.45
2018-11-29T23:17:17.137Z,9.60
2018-11-29T23:19:45.361Z,10.68
2018-11-29T23:22:13.611Z,9.33
2018-11-29T23:24:41.815Z,8.85
2018-11-29T23:27:10.011Z,10.23
2018-11-29T23:29:38.715Z,9.63
2018-11-29T23:32:07.092Z,9.43
2018-11-29T23:34:35.237Z,9.85
2018-11-29T23:37:03.583Z,9.18
2018-11-29T23:39:31.776Z,9.28
2018-11-29T23:42:00.165Z,9.80
2018-11-29T23:44:28.420Z,9.98
2018-11-29T23:46:56.835Z,10.10
2018-11-29T23:49:26.043Z,9.65
2018-11-29T23:51:54.317Z,9.63
2018-11-29T23:54:22.673Z,9.85
2018-11-29T23:56:50.913Z,10.58
2018-11-29T23:59:19.113Z,9.50
